sensor_id;sensor_type;location;lat;lon;timestamp;temperature;humidity
71523;HTU21D;59343;51.102;5.884;2023-05-29T00:00:21;17.07;64.79
71523;HTU21D;59343;51.102;5.884;2023-05-29T00:02:49;17.00;64.95
71523;HTU21D;59343;51.102;5.884;2023-05-29T00:05:15;16.99;65.01
71523;HTU21D;59343;51.102;5.884;2023-05-29T00:07:41;17.01;64.98
71523;HTU21D;59343;51.102;5.884;2023-05-29T00:10:09;16.99;65.06
71523;HTU21D;59343;51.102;5.884;2023-05-29T00:12:36;16.98;64.98
71523;HTU21D;59343;51.102;5.884;2023-05-29T00:15:03;16.99;64.91
71523;HTU21D;59343;51.102;5.884;2023-05-29T00:17:32;16.92;64.95
71523;HTU21D;59343;51.102;5.884;2023-05-29T00:19:59;16.86;65.14
71523;HTU21D;59343;51.102;5.884;2023-05-29T00:22:24;16.75;65.38
71523;HTU21D;59343;51.102;5.884;2023-05-29T00:24:51;16.72;65.63
71523;HTU21D;59343;51.102;5.884;2023-05-29T00:27:17;16.63;65.82
71523;HTU21D;59343;51.102;5.884;2023-05-29T00:29:43;16.56;66.06
71523;HTU21D;59343;51.102;5.884;2023-05-29T00:32:09;16.50;66.30
71523;HTU21D;59343;51.102;5.884;2023-05-29T00:34:35;16.45;66.49
71523;HTU21D;59343;51.102;5.884;2023-05-29T00:37:01;16.44;66.56
71523;HTU21D;59343;51.102;5.884;2023-05-29T00:39:27;16.36;66.97
71523;HTU21D;59343;51.102;5.884;2023-05-29T00:41:53;16.26;67.07
71523;HTU21D;59343;51.102;5.884;2023-05-29T00:44:22;16.22;67.29
71523;HTU21D;59343;51.102;5.884;2023-05-29T00:46:51;16.22;67.39
71523;HTU21D;59343;51.102;5.884;2023-05-29T00:49:21;16.20;67.42
71523;HTU21D;59343;51.102;5.884;2023-05-29T00:51:48;16.16;67.52
71523;HTU21D;59343;51.102;5.884;2023-05-29T00:54:26;16.15;67.55
71523;HTU21D;59343;51.102;5.884;2023-05-29T00:56:52;16.15;67.65
71523;HTU21D;59343;51.102;5.884;2023-05-29T00:59:19;16.13;67.97
71523;HTU21D;59343;51.102;5.884;2023-05-29T01:01:49;16.10;67.84
71523;HTU21D;59343;51.102;5.884;2023-05-29T01:04:16;16.06;67.98
71523;HTU21D;59343;51.102;5.884;2023-05-29T01:06:43;16.02;68.14
71523;HTU21D;59343;51.102;5.884;2023-05-29T01:09:10;15.95;68.65
71523;HTU21D;59343;51.102;5.884;2023-05-29T01:12:03;15.89;68.62
71523;HTU21D;59343;51.102;5.884;2023-05-29T01:17:26;15.80;69.13
71523;HTU21D;59343;51.102;5.884;2023-05-29T01:23:19;15.57;70.00
71523;HTU21D;59343;51.102;5.884;2023-05-29T01:26:20;15.48;70.24
71523;HTU21D;59343;51.102;5.884;2023-05-29T01:28:51;15.47;70.36
71523;HTU21D;59343;51.102;5.884;2023-05-29T01:31:21;15.38;71.19
71523;HTU21D;59343;51.102;5.884;2023-05-29T01:33:55;15.16;72.09
71523;HTU21D;59343;51.102;5.884;2023-05-29T01:36:23;15.12;71.65
71523;HTU21D;59343;51.102;5.884;2023-05-29T01:38:51;15.16;71.73
71523;HTU21D;59343;51.102;5.884;2023-05-29T01:41:19;15.23;71.60
71523;HTU21D;59343;51.102;5.884;2023-05-29T01:43:47;15.26;71.61
71523;HTU21D;59343;51.102;5.884;2023-05-29T01:46:14;15.07;72.28
71523;HTU21D;59343;51.102;5.884;2023-05-29T01:48:44;14.99;72.61
71523;HTU21D;59343;51.102;5.884;2023-05-29T01:51:11;14.93;72.81
71523;HTU21D;59343;51.102;5.884;2023-05-29T01:53:42;14.94;72.69
71523;HTU21D;59343;51.102;5.884;2023-05-29T01:56:09;14.96;72.61
71523;HTU21D;59343;51.102;5.884;2023-05-29T01:58:35;14.92;72.90
71523;HTU21D;59343;51.102;5.884;2023-05-29T02:01:02;14.82;73.09
71523;HTU21D;59343;51.102;5.884;2023-05-29T02:03:29;14.80;73.01
71523;HTU21D;59343;51.102;5.884;2023-05-29T02:06:00;14.73;73.12
71523;HTU21D;59343;51.102;5.884;2023-05-29T02:08:26;14.69;73.13
71523;HTU21D;59343;51.102;5.884;2023-05-29T02:10:52;14.64;73.33
71523;HTU21D;59343;51.102;5.884;2023-05-29T02:13:18;14.65;73.13
71523;HTU21D;59343;51.102;5.884;2023-05-29T02:15:44;14.62;73.03
71523;HTU21D;59343;51.102;5.884;2023-05-29T02:18:13;14.57;72.87
71523;HTU21D;59343;51.102;5.884;2023-05-29T02:20:40;14.50;73.06
71523;HTU21D;59343;51.102;5.884;2023-05-29T02:23:08;14.45;72.96
71523;HTU21D;59343;51.102;5.884;2023-05-29T02:25:33;14.38;73.15
71523;HTU21D;59343;51.102;5.884;2023-05-29T02:27:59;14.30;73.02
71523;HTU21D;59343;51.102;5.884;2023-05-29T02:30:25;14.26;73.03
71523;HTU21D;59343;51.102;5.884;2023-05-29T02:32:51;14.25;72.99
71523;HTU21D;59343;51.102;5.884;2023-05-29T02:35:17;14.15;72.77
71523;HTU21D;59343;51.102;5.884;2023-05-29T02:37:46;14.05;73.06
71523;HTU21D;59343;51.102;5.884;2023-05-29T02:40:15;14.05;72.97
71523;HTU21D;59343;51.102;5.884;2023-05-29T02:42:41;13.99;72.90
71523;HTU21D;59343;51.102;5.884;2023-05-29T02:45:07;13.97;72.71
71523;HTU21D;59343;51.102;5.884;2023-05-29T02:47:33;13.89;72.88
71523;HTU21D;59343;51.102;5.884;2023-05-29T02:49:59;13.88;72.73
71523;HTU21D;59343;51.102;5.884;2023-05-29T02:52:24;13.86;72.58
71523;HTU21D;59343;51.102;5.884;2023-05-29T02:54:50;13.88;72.36
71523;HTU21D;59343;51.102;5.884;2023-05-29T02:57:16;13.88;72.24
71523;HTU21D;59343;51.102;5.884;2023-05-29T02:59:42;13.85;72.30
71523;HTU21D;59343;51.102;5.884;2023-05-29T03:02:09;13.83;72.06
71523;HTU21D;59343;51.102;5.884;2023-05-29T03:04:35;13.85;71.96
71523;HTU21D;59343;51.102;5.884;2023-05-29T03:07:01;13.85;71.86
71523;HTU21D;59343;51.102;5.884;2023-05-29T03:09:30;13.76;72.02
71523;HTU21D;59343;51.102;5.884;2023-05-29T03:11:56;13.75;71.93
71523;HTU21D;59343;51.102;5.884;2023-05-29T03:14:22;13.75;72.09
71523;HTU21D;59343;51.102;5.884;2023-05-29T03:16:48;13.69;72.13
71523;HTU21D;59343;51.102;5.884;2023-05-29T03:19:14;13.73;71.97
71523;HTU21D;59343;51.102;5.884;2023-05-29T03:21:40;13.76;71.84
71523;HTU21D;59343;51.102;5.884;2023-05-29T03:24:06;13.79;71.77
71523;HTU21D;59343;51.102;5.884;2023-05-29T03:26:34;13.79;71.51
71523;HTU21D;59343;51.102;5.884;2023-05-29T03:29:02;13.79;71.34
71523;HTU21D;59343;51.102;5.884;2023-05-29T03:31:29;13.79;71.29
71523;HTU21D;59343;51.102;5.884;2023-05-29T03:33:56;13.78;71.09
71523;HTU21D;59343;51.102;5.884;2023-05-29T03:36:28;13.76;71.01
71523;HTU21D;59343;51.102;5.884;2023-05-29T03:38:54;13.74;70.99
71523;HTU21D;59343;51.102;5.884;2023-05-29T03:41:20;13.73;70.94
71523;HTU21D;59343;51.102;5.884;2023-05-29T03:43:46;13.75;70.99
71523;HTU21D;59343;51.102;5.884;2023-05-29T03:46:12;13.75;70.74
71523;HTU21D;59343;51.102;5.884;2023-05-29T03:48:38;13.75;70.66
71523;HTU21D;59343;51.102;5.884;2023-05-29T03:51:05;13.71;70.58
71523;HTU21D;59343;51.102;5.884;2023-05-29T03:53:34;13.67;70.45
71523;HTU21D;59343;51.102;5.884;2023-05-29T03:56:00;13.63;70.36
71523;HTU21D;59343;51.102;5.884;2023-05-29T03:58:28;13.61;70.38
71523;HTU21D;59343;51.102;5.884;2023-05-29T04:00:54;13.61;70.28
71523;HTU21D;59343;51.102;5.884;2023-05-29T04:03:21;13.58;70.26
71523;HTU21D;59343;51.102;5.884;2023-05-29T04:05:47;13.60;70.10
71523;HTU21D;59343;51.102;5.884;2023-05-29T04:08:13;13.60;70.07
71523;HTU21D;59343;51.102;5.884;2023-05-29T04:10:39;13.52;70.01
71523;HTU21D;59343;51.102;5.884;2023-05-29T04:13:05;13.50;70.05
71523;HTU21D;59343;51.102;5.884;2023-05-29T04:15:32;13.44;70.13
71523;HTU21D;59343;51.102;5.884;2023-05-29T04:17:59;13.38;70.17
71523;HTU21D;59343;51.102;5.884;2023-05-29T04:20:26;13.41;70.07
71523;HTU21D;59343;51.102;5.884;2023-05-29T04:22:52;13.43;69.97
71523;HTU21D;59343;51.102;5.884;2023-05-29T04:25:19;13.44;69.91
71523;HTU21D;59343;51.102;5.884;2023-05-29T04:27:45;13.46;69.81
71523;HTU21D;59343;51.102;5.884;2023-05-29T04:30:15;13.53;69.59
71523;HTU21D;59343;51.102;5.884;2023-05-29T04:32:45;13.73;69.21
71523;HTU21D;59343;51.102;5.884;2023-05-29T04:35:12;14.25;68.29
71523;HTU21D;59343;51.102;5.884;2023-05-29T04:37:45;14.96;66.22
71523;HTU21D;59343;51.102;5.884;2023-05-29T04:40:12;15.61;64.11
71523;HTU21D;59343;51.102;5.884;2023-05-29T04:42:39;15.81;62.35
71523;HTU21D;59343;51.102;5.884;2023-05-29T04:45:10;15.52;62.42
71523;HTU21D;59343;51.102;5.884;2023-05-29T04:47:38;15.18;63.21
71523;HTU21D;59343;51.102;5.884;2023-05-29T04:50:14;14.84;64.23
71523;HTU21D;59343;51.102;5.884;2023-05-29T04:52:42;14.59;65.05
71523;HTU21D;59343;51.102;5.884;2023-05-29T04:55:10;14.41;65.75
71523;HTU21D;59343;51.102;5.884;2023-05-29T04:57:38;14.53;66.07
71523;HTU21D;59343;51.102;5.884;2023-05-29T05:00:07;14.80;65.27
71523;HTU21D;59343;51.102;5.884;2023-05-29T05:02:42;14.72;64.80
71523;HTU21D;59343;51.102;5.884;2023-05-29T05:05:09;14.57;65.13
71523;HTU21D;59343;51.102;5.884;2023-05-29T05:07:35;14.39;65.71
71523;HTU21D;59343;51.102;5.884;2023-05-29T05:10:02;14.26;66.22
71523;HTU21D;59343;51.102;5.884;2023-05-29T05:12:28;14.30;66.52
71523;HTU21D;59343;51.102;5.884;2023-05-29T05:14:54;15.06;65.58
71523;HTU21D;59343;51.102;5.884;2023-05-29T05:17:21;16.04;63.03
71523;HTU21D;59343;51.102;5.884;2023-05-29T05:19:46;16.79;59.89
71523;HTU21D;59343;51.102;5.884;2023-05-29T05:22:15;17.28;58.29
71523;HTU21D;59343;51.102;5.884;2023-05-29T05:24:42;17.81;57.21
71523;HTU21D;59343;51.102;5.884;2023-05-29T05:27:08;18.15;55.52
71523;HTU21D;59343;51.102;5.884;2023-05-29T05:29:34;18.42;54.93
71523;HTU21D;59343;51.102;5.884;2023-05-29T05:32:00;18.65;53.99
71523;HTU21D;59343;51.102;5.884;2023-05-29T05:34:26;18.87;54.04
71523;HTU21D;59343;51.102;5.884;2023-05-29T05:36:51;19.28;53.01
71523;HTU21D;59343;51.102;5.884;2023-05-29T05:39:17;19.60;51.69
71523;HTU21D;59343;51.102;5.884;2023-05-29T05:41:46;19.71;51.37
71523;HTU21D;59343;51.102;5.884;2023-05-29T05:44:16;19.76;50.71
71523;HTU21D;59343;51.102;5.884;2023-05-29T05:46:48;19.76;50.90
71523;HTU21D;59343;51.102;5.884;2023-05-29T05:49:14;19.97;50.92
71523;HTU21D;59343;51.102;5.884;2023-05-29T05:51:41;20.26;49.82
71523;HTU21D;59343;51.102;5.884;2023-05-29T05:54:08;20.18;49.35
71523;HTU21D;59343;51.102;5.884;2023-05-29T05:56:35;20.14;49.47
71523;HTU21D;59343;51.102;5.884;2023-05-29T05:59:00;20.10;49.59
71523;HTU21D;59343;51.102;5.884;2023-05-29T06:01:27;20.11;49.56
71523;HTU21D;59343;51.102;5.884;2023-05-29T06:03:52;19.92;49.69
71523;HTU21D;59343;51.102;5.884;2023-05-29T06:06:19;19.58;49.87
71523;HTU21D;59343;51.102;5.884;2023-05-29T06:08:46;19.08;51.24
71523;HTU21D;59343;51.102;5.884;2023-05-29T06:11:13;18.99;52.24
71523;HTU21D;59343;51.102;5.884;2023-05-29T06:13:42;19.15;51.15
71523;HTU21D;59343;51.102;5.884;2023-05-29T06:16:13;18.78;51.67
71523;HTU21D;59343;51.102;5.884;2023-05-29T06:18:39;18.30;52.78
71523;HTU21D;59343;51.102;5.884;2023-05-29T06:21:07;17.94;54.18
71523;HTU21D;59343;51.102;5.884;2023-05-29T06:23:33;17.97;54.59
71523;HTU21D;59343;51.102;5.884;2023-05-29T06:26:00;18.14;54.18
71523;HTU21D;59343;51.102;5.884;2023-05-29T06:28:26;18.52;53.69
71523;HTU21D;59343;51.102;5.884;2023-05-29T06:30:52;18.99;52.02
71523;HTU21D;59343;51.102;5.884;2023-05-29T06:33:18;19.25;51.50
71523;HTU21D;59343;51.102;5.884;2023-05-29T06:35:46;19.35;50.53
71523;HTU21D;59343;51.102;5.884;2023-05-29T06:38:11;19.43;50.54
71523;HTU21D;59343;51.102;5.884;2023-05-29T06:40:46;19.63;50.36
71523;HTU21D;59343;51.102;5.884;2023-05-29T06:43:12;20.05;49.34
71523;HTU21D;59343;51.102;5.884;2023-05-29T06:45:39;20.04;49.18
71523;HTU21D;59343;51.102;5.884;2023-05-29T06:48:06;19.85;49.42
71523;HTU21D;59343;51.102;5.884;2023-05-29T06:50:32;19.57;49.88
71523;HTU21D;59343;51.102;5.884;2023-05-29T06:53:08;19.08;50.99
71523;HTU21D;59343;51.102;5.884;2023-05-29T06:55:43;18.59;52.28
71523;HTU21D;59343;51.102;5.884;2023-05-29T06:58:09;18.25;53.55
71523;HTU21D;59343;51.102;5.884;2023-05-29T07:00:35;18.05;54.37
71523;HTU21D;59343;51.102;5.884;2023-05-29T07:03:19;17.89;54.67
71523;HTU21D;59343;51.102;5.884;2023-05-29T07:05:45;17.79;55.01
71523;HTU21D;59343;51.102;5.884;2023-05-29T07:08:11;17.74;55.23
71523;HTU21D;59343;51.102;5.884;2023-05-29T07:10:37;17.70;55.13
71523;HTU21D;59343;51.102;5.884;2023-05-29T07:13:02;17.53;55.64
71523;HTU21D;59343;51.102;5.884;2023-05-29T07:15:28;17.46;55.88
71523;HTU21D;59343;51.102;5.884;2023-05-29T07:17:55;17.51;55.94
71523;HTU21D;59343;51.102;5.884;2023-05-29T07:20:25;17.52;55.98
71523;HTU21D;59343;51.102;5.884;2023-05-29T07:22:52;17.47;55.94
71523;HTU21D;59343;51.102;5.884;2023-05-29T07:25:18;17.52;56.05
71523;HTU21D;59343;51.102;5.884;2023-05-29T07:27:43;17.54;56.04
71523;HTU21D;59343;51.102;5.884;2023-05-29T07:30:10;17.51;55.99
71523;HTU21D;59343;51.102;5.884;2023-05-29T07:32:36;17.47;56.01
71523;HTU21D;59343;51.102;5.884;2023-05-29T07:35:02;17.40;55.92
71523;HTU21D;59343;51.102;5.884;2023-05-29T07:37:28;17.34;56.25
71523;HTU21D;59343;51.102;5.884;2023-05-29T07:42:37;17.38;56.16
71523;HTU21D;59343;51.102;5.884;2023-05-29T07:45:03;17.45;56.05
71523;HTU21D;59343;51.102;5.884;2023-05-29T07:47:30;17.48;56.11
71523;HTU21D;59343;51.102;5.884;2023-05-29T07:49:55;17.45;56.10
71523;HTU21D;59343;51.102;5.884;2023-05-29T07:52:24;17.44;56.23
71523;HTU21D;59343;51.102;5.884;2023-05-29T07:54:50;17.43;56.25
71523;HTU21D;59343;51.102;5.884;2023-05-29T07:57:16;17.29;56.26
71523;HTU21D;59343;51.102;5.884;2023-05-29T07:59:43;17.26;56.53
71523;HTU21D;59343;51.102;5.884;2023-05-29T08:02:10;17.29;56.54
71523;HTU21D;59343;51.102;5.884;2023-05-29T08:05:03;17.33;56.61
71523;HTU21D;59343;51.102;5.884;2023-05-29T08:07:30;17.38;56.66
71523;HTU21D;59343;51.102;5.884;2023-05-29T08:09:56;17.45;56.49
71523;HTU21D;59343;51.102;5.884;2023-05-29T08:12:22;17.51;56.39
71523;HTU21D;59343;51.102;5.884;2023-05-29T08:14:50;17.52;56.02
71523;HTU21D;59343;51.102;5.884;2023-05-29T08:17:16;17.53;56.17
71523;HTU21D;59343;51.102;5.884;2023-05-29T08:19:42;17.59;56.16
71523;HTU21D;59343;51.102;5.884;2023-05-29T08:22:12;17.59;56.01
71523;HTU21D;59343;51.102;5.884;2023-05-29T08:24:39;17.54;55.99
71523;HTU21D;59343;51.102;5.884;2023-05-29T08:27:05;17.50;56.14
71523;HTU21D;59343;51.102;5.884;2023-05-29T08:29:31;17.48;56.19
71523;HTU21D;59343;51.102;5.884;2023-05-29T08:31:57;17.49;56.32
71523;HTU21D;59343;51.102;5.884;2023-05-29T08:34:23;17.53;56.26
71523;HTU21D;59343;51.102;5.884;2023-05-29T08:36:49;17.58;55.84
71523;HTU21D;59343;51.102;5.884;2023-05-29T08:39:17;17.62;55.81
71523;HTU21D;59343;51.102;5.884;2023-05-29T08:42:04;17.67;55.81
71523;HTU21D;59343;51.102;5.884;2023-05-29T08:44:33;17.67;55.42
71523;HTU21D;59343;51.102;5.884;2023-05-29T08:47:02;17.75;55.71
71523;HTU21D;59343;51.102;5.884;2023-05-29T08:49:37;17.78;55.69
71523;HTU21D;59343;51.102;5.884;2023-05-29T08:52:33;17.85;55.74
71523;HTU21D;59343;51.102;5.884;2023-05-29T08:55:01;17.93;55.36
71523;HTU21D;59343;51.102;5.884;2023-05-29T08:57:28;18.02;55.65
71523;HTU21D;59343;51.102;5.884;2023-05-29T08:59:57;18.09;55.42
71523;HTU21D;59343;51.102;5.884;2023-05-29T09:02:23;18.13;55.46
71523;HTU21D;59343;51.102;5.884;2023-05-29T09:04:49;18.17;55.42
71523;HTU21D;59343;51.102;5.884;2023-05-29T09:07:16;18.26;55.31
71523;HTU21D;59343;51.102;5.884;2023-05-29T09:09:47;18.27;55.01
71523;HTU21D;59343;51.102;5.884;2023-05-29T09:12:14;18.33;55.21
71523;HTU21D;59343;51.102;5.884;2023-05-29T09:14:42;18.38;54.68
71523;HTU21D;59343;51.102;5.884;2023-05-29T09:17:09;18.43;54.68
71523;HTU21D;59343;51.102;5.884;2023-05-29T09:19:35;18.42;54.67
71523;HTU21D;59343;51.102;5.884;2023-05-29T09:22:03;18.39;54.60
71523;HTU21D;59343;51.102;5.884;2023-05-29T09:24:33;18.43;54.39
71523;HTU21D;59343;51.102;5.884;2023-05-29T09:27:00;18.49;54.56
71523;HTU21D;59343;51.102;5.884;2023-05-29T09:29:31;18.57;54.04
71523;HTU21D;59343;51.102;5.884;2023-05-29T09:31:58;18.70;53.90
71523;HTU21D;59343;51.102;5.884;2023-05-29T09:34:25;18.79;53.62
71523;HTU21D;59343;51.102;5.884;2023-05-29T09:37:04;18.76;53.36
71523;HTU21D;59343;51.102;5.884;2023-05-29T09:39:50;18.67;53.72
71523;HTU21D;59343;51.102;5.884;2023-05-29T09:42:17;18.59;53.84
71523;HTU21D;59343;51.102;5.884;2023-05-29T09:44:50;18.56;54.08
71523;HTU21D;59343;51.102;5.884;2023-05-29T09:47:19;18.62;53.88
71523;HTU21D;59343;51.102;5.884;2023-05-29T09:49:46;18.63;53.78
71523;HTU21D;59343;51.102;5.884;2023-05-29T09:52:13;18.63;53.80
71523;HTU21D;59343;51.102;5.884;2023-05-29T09:54:45;18.63;53.75
71523;HTU21D;59343;51.102;5.884;2023-05-29T09:57:14;18.65;53.52
71523;HTU21D;59343;51.102;5.884;2023-05-29T09:59:44;18.63;53.58
71523;HTU21D;59343;51.102;5.884;2023-05-29T10:02:17;18.68;53.68
71523;HTU21D;59343;51.102;5.884;2023-05-29T10:04:44;18.74;53.54
71523;HTU21D;59343;51.102;5.884;2023-05-29T10:07:25;18.79;53.34
71523;HTU21D;59343;51.102;5.884;2023-05-29T10:09:58;18.86;53.02
71523;HTU21D;59343;51.102;5.884;2023-05-29T10:12:27;18.93;53.11
71523;HTU21D;59343;51.102;5.884;2023-05-29T10:14:57;18.85;52.68
71523;HTU21D;59343;51.102;5.884;2023-05-29T10:17:31;18.80;52.74
71523;HTU21D;59343;51.102;5.884;2023-05-29T10:20:01;18.95;52.75
71523;HTU21D;59343;51.102;5.884;2023-05-29T10:22:31;19.11;52.75
71523;HTU21D;59343;51.102;5.884;2023-05-29T10:24:57;19.31;52.31
71523;HTU21D;59343;51.102;5.884;2023-05-29T10:27:24;19.42;51.77
71523;HTU21D;59343;51.102;5.884;2023-05-29T10:35:48;19.40;51.40
71523;HTU21D;59343;51.102;5.884;2023-05-29T10:38:18;19.37;51.62
71523;HTU21D;59343;51.102;5.884;2023-05-29T10:40:45;19.40;51.46
71523;HTU21D;59343;51.102;5.884;2023-05-29T10:43:37;19.53;50.88
71523;HTU21D;59343;51.102;5.884;2023-05-29T10:46:05;19.68;51.04
71523;HTU21D;59343;51.102;5.884;2023-05-29T10:48:39;19.85;50.69
71523;HTU21D;59343;51.102;5.884;2023-05-29T10:51:07;20.02;50.21
71523;HTU21D;59343;51.102;5.884;2023-05-29T10:53:34;20.10;50.01
71523;HTU21D;59343;51.102;5.884;2023-05-29T10:56:08;20.06;49.89
71523;HTU21D;59343;51.102;5.884;2023-05-29T10:58:36;20.10;49.85
71523;HTU21D;59343;51.102;5.884;2023-05-29T11:01:02;20.15;49.63
71523;HTU21D;59343;51.102;5.884;2023-05-29T11:03:32;20.18;49.64
71523;HTU21D;59343;51.102;5.884;2023-05-29T11:05:59;20.30;49.50
71523;HTU21D;59343;51.102;5.884;2023-05-29T11:11:15;20.35;49.34
71523;HTU21D;59343;51.102;5.884;2023-05-29T11:13:56;20.36;49.02
71523;HTU21D;59343;51.102;5.884;2023-05-29T11:18:52;20.47;49.35
71523;HTU21D;59343;51.102;5.884;2023-05-29T11:21:30;20.58;49.09
71523;HTU21D;59343;51.102;5.884;2023-05-29T11:23:59;20.57;48.86
71523;HTU21D;59343;51.102;5.884;2023-05-29T11:26:29;20.57;48.61
71523;HTU21D;59343;51.102;5.884;2023-05-29T11:29:06;20.61;48.79
71523;HTU21D;59343;51.102;5.884;2023-05-29T11:31:37;20.70;48.38
71523;HTU21D;59343;51.102;5.884;2023-05-29T11:34:03;20.72;47.97
71523;HTU21D;59343;51.102;5.884;2023-05-29T11:36:31;20.72;48.12
71523;HTU21D;59343;51.102;5.884;2023-05-29T11:38:59;20.75;48.30
71523;HTU21D;59343;51.102;5.884;2023-05-29T11:41:26;20.77;48.41
71523;HTU21D;59343;51.102;5.884;2023-05-29T11:43:58;20.80;48.12
71523;HTU21D;59343;51.102;5.884;2023-05-29T11:46:24;20.94;47.86
71523;HTU21D;59343;51.102;5.884;2023-05-29T11:48:52;21.01;47.92
71523;HTU21D;59343;51.102;5.884;2023-05-29T11:51:18;21.09;47.29
71523;HTU21D;59343;51.102;5.884;2023-05-29T11:53:47;21.19;47.49
71523;HTU21D;59343;51.102;5.884;2023-05-29T11:56:13;21.19;47.57
71523;HTU21D;59343;51.102;5.884;2023-05-29T11:58:40;21.10;47.41
71523;HTU21D;59343;51.102;5.884;2023-05-29T12:01:07;20.98;47.31
71523;HTU21D;59343;51.102;5.884;2023-05-29T12:03:39;20.92;47.86
71523;HTU21D;59343;51.102;5.884;2023-05-29T12:06:05;21.00;47.56
71523;HTU21D;59343;51.102;5.884;2023-05-29T12:08:32;21.02;47.50
71523;HTU21D;59343;51.102;5.884;2023-05-29T12:10:58;21.00;47.60
71523;HTU21D;59343;51.102;5.884;2023-05-29T12:13:24;21.04;47.61
71523;HTU21D;59343;51.102;5.884;2023-05-29T12:15:54;21.05;47.41
71523;HTU21D;59343;51.102;5.884;2023-05-29T12:18:22;21.13;47.44
71523;HTU21D;59343;51.102;5.884;2023-05-29T12:20:48;21.24;47.30
71523;HTU21D;59343;51.102;5.884;2023-05-29T12:23:14;21.35;47.32
71523;HTU21D;59343;51.102;5.884;2023-05-29T12:25:40;21.40;46.95
71523;HTU21D;59343;51.102;5.884;2023-05-29T12:28:06;21.45;46.81
71523;HTU21D;59343;51.102;5.884;2023-05-29T12:30:37;21.44;46.58
71523;HTU21D;59343;51.102;5.884;2023-05-29T12:33:04;21.35;47.00
71523;HTU21D;59343;51.102;5.884;2023-05-29T12:35:32;21.42;46.93
71523;HTU21D;59343;51.102;5.884;2023-05-29T12:38:05;21.47;46.98
71523;HTU21D;59343;51.102;5.884;2023-05-29T12:40:34;21.50;46.75
71523;HTU21D;59343;51.102;5.884;2023-05-29T12:43:05;21.57;46.79
71523;HTU21D;59343;51.102;5.884;2023-05-29T12:45:32;21.65;46.60
71523;HTU21D;59343;51.102;5.884;2023-05-29T12:50:26;21.67;46.25
71523;HTU21D;59343;51.102;5.884;2023-05-29T12:53:10;21.76;46.19
71523;HTU21D;59343;51.102;5.884;2023-05-29T12:55:39;21.80;45.65
71523;HTU21D;59343;51.102;5.884;2023-05-29T12:58:06;21.76;45.80
71523;HTU21D;59343;51.102;5.884;2023-05-29T13:00:40;21.64;45.99
71523;HTU21D;59343;51.102;5.884;2023-05-29T13:03:07;21.58;46.24
71523;HTU21D;59343;51.102;5.884;2023-05-29T13:05:33;21.61;46.12
71523;HTU21D;59343;51.102;5.884;2023-05-29T13:07:59;21.69;46.19
71523;HTU21D;59343;51.102;5.884;2023-05-29T13:10:27;21.67;45.76
71523;HTU21D;59343;51.102;5.884;2023-05-29T13:12:54;21.73;45.96
71523;HTU21D;59343;51.102;5.884;2023-05-29T13:15:24;21.76;46.01
71523;HTU21D;59343;51.102;5.884;2023-05-29T13:17:51;21.72;45.81
71523;HTU21D;59343;51.102;5.884;2023-05-29T13:20:18;21.73;45.67
71523;HTU21D;59343;51.102;5.884;2023-05-29T13:22:45;21.66;45.78
71523;HTU21D;59343;51.102;5.884;2023-05-29T13:25:13;21.58;45.64
71523;HTU21D;59343;51.102;5.884;2023-05-29T13:27:42;21.58;45.74
71523;HTU21D;59343;51.102;5.884;2023-05-29T13:30:09;21.74;45.86
71523;HTU21D;59343;51.102;5.884;2023-05-29T13:32:36;21.82;45.49
71523;HTU21D;59343;51.102;5.884;2023-05-29T13:35:03;21.79;45.09
71523;HTU21D;59343;51.102;5.884;2023-05-29T13:37:29;21.76;44.94
71523;HTU21D;59343;51.102;5.884;2023-05-29T13:39:55;21.74;44.99
71523;HTU21D;59343;51.102;5.884;2023-05-29T13:42:22;21.69;44.91
71523;HTU21D;59343;51.102;5.884;2023-05-29T13:44:48;21.62;44.77
71523;HTU21D;59343;51.102;5.884;2023-05-29T13:47:15;21.54;44.85
71523;HTU21D;59343;51.102;5.884;2023-05-29T13:49:43;21.49;45.01
71523;HTU21D;59343;51.102;5.884;2023-05-29T13:52:09;21.50;45.03
71523;HTU21D;59343;51.102;5.884;2023-05-29T13:54:35;21.59;45.23
71523;HTU21D;59343;51.102;5.884;2023-05-29T13:57:02;21.65;44.84
71523;HTU21D;59343;51.102;5.884;2023-05-29T13:59:33;21.65;44.81
71523;HTU21D;59343;51.102;5.884;2023-05-29T14:02:01;21.64;44.59
71523;HTU21D;59343;51.102;5.884;2023-05-29T14:04:29;21.69;44.93
71523;HTU21D;59343;51.102;5.884;2023-05-29T14:06:55;21.67;44.28
71523;HTU21D;59343;51.102;5.884;2023-05-29T14:09:22;21.70;44.67
71523;HTU21D;59343;51.102;5.884;2023-05-29T14:11:54;21.68;44.83
71523;HTU21D;59343;51.102;5.884;2023-05-29T14:14:20;21.74;44.94
71523;HTU21D;59343;51.102;5.884;2023-05-29T14:16:46;21.75;44.69
71523;HTU21D;59343;51.102;5.884;2023-05-29T14:19:12;21.78;44.88
71523;HTU21D;59343;51.102;5.884;2023-05-29T14:21:38;21.84;44.34
71523;HTU21D;59343;51.102;5.884;2023-05-29T14:24:04;21.87;44.41
71523;HTU21D;59343;51.102;5.884;2023-05-29T14:26:30;21.81;44.45
71523;HTU21D;59343;51.102;5.884;2023-05-29T14:28:55;21.68;44.30
71523;HTU21D;59343;51.102;5.884;2023-05-29T14:31:22;21.65;44.27
71523;HTU21D;59343;51.102;5.884;2023-05-29T14:33:47;21.69;44.71
71523;HTU21D;59343;51.102;5.884;2023-05-29T14:36:13;21.81;44.68
71523;HTU21D;59343;51.102;5.884;2023-05-29T14:38:39;21.91;44.53
71523;HTU21D;59343;51.102;5.884;2023-05-29T14:41:06;21.98;44.44
71523;HTU21D;59343;51.102;5.884;2023-05-29T14:43:32;21.95;44.13
71523;HTU21D;59343;51.102;5.884;2023-05-29T14:45:58;21.85;44.29
71523;HTU21D;59343;51.102;5.884;2023-05-29T14:48:24;21.76;44.55
71523;HTU21D;59343;51.102;5.884;2023-05-29T14:50:50;21.70;44.59
71523;HTU21D;59343;51.102;5.884;2023-05-29T14:53:15;21.74;44.61
71523;HTU21D;59343;51.102;5.884;2023-05-29T14:55:41;21.77;44.32
71523;HTU21D;59343;51.102;5.884;2023-05-29T14:58:07;21.65;44.31
71523;HTU21D;59343;51.102;5.884;2023-05-29T15:00:33;21.59;44.64
71523;HTU21D;59343;51.102;5.884;2023-05-29T15:02:58;21.66;44.74
71523;HTU21D;59343;51.102;5.884;2023-05-29T15:05:28;21.69;44.58
71523;HTU21D;59343;51.102;5.884;2023-05-29T15:07:54;21.67;44.58
71523;HTU21D;59343;51.102;5.884;2023-05-29T15:10:25;21.61;44.51
71523;HTU21D;59343;51.102;5.884;2023-05-29T15:12:52;21.44;44.61
71523;HTU21D;59343;51.102;5.884;2023-05-29T15:15:27;21.34;44.93
71523;HTU21D;59343;51.102;5.884;2023-05-29T15:17:53;21.33;45.01
71523;HTU21D;59343;51.102;5.884;2023-05-29T15:20:22;21.29;45.14
71523;HTU21D;59343;51.102;5.884;2023-05-29T15:22:49;21.32;45.13
71523;HTU21D;59343;51.102;5.884;2023-05-29T15:25:19;21.37;45.27
71523;HTU21D;59343;51.102;5.884;2023-05-29T15:27:45;21.36;45.22
71523;HTU21D;59343;51.102;5.884;2023-05-29T15:30:15;21.34;44.99
71523;HTU21D;59343;51.102;5.884;2023-05-29T15:32:43;21.21;45.05
71523;HTU21D;59343;51.102;5.884;2023-05-29T15:35:10;21.13;45.31
71523;HTU21D;59343;51.102;5.884;2023-05-29T15:37:37;21.05;45.29
71523;HTU21D;59343;51.102;5.884;2023-05-29T15:40:04;21.01;45.51
71523;HTU21D;59343;51.102;5.884;2023-05-29T15:42:31;20.95;45.48